| time (UTC) | temp C | wind direction | speed KPH | gust KPH | rain 1hr cm | rain 24hr cm | rain mn cm | humidity % | barometer mb |
| 20260510071022 | 19 | 214 | 12.9 | 22.5 | 0.00 | 0.00 | 0.00 | 81 | 1026.3 |
| 20260510070520 | 19 | 224 | 9.7 | 19.3 | 0.00 | 0.00 | 0.00 | 82 | 1026.2 |
| 20260510070017 | 19 | 215 | 11.3 | 20.9 | 0.00 | 0.00 | 0.00 | 82 | 1026.2 |
| 20260510065516 | 19 | 219 | 12.9 | 22.5 | 0.00 | 0.00 | 0.00 | 82 | 1026.1 |
| 20260510065014 | 19 | 218 | 9.7 | 17.7 | 0.00 | 0.00 | 0.00 | 81 | 1026.2 |
| 20260510064512 | 19 | 213 | 16.1 | 30.6 | 0.00 | 0.00 | 0.00 | 81 | 1026.1 |
| 20260510064011 | 19 | 207 | 14.5 | 24.1 | 0.00 | 0.00 | 0.00 | 81 | 1026.0 |
| 20260510063510 | 19 | 205 | 16.1 | 27.4 | 0.00 | 0.00 | 0.00 | 80 | 1026.1 |
| 20260510063008 | 19 | 206 | 9.7 | 22.5 | 0.00 | 0.00 | 0.00 | 80 | 1026.1 |
| 20260510062507 | 19 | 208 | 16.1 | 22.5 | 0.00 | 0.00 | 0.00 | 79 | 1025.9 |
| 20260510061502 | 19 | 204 | 17.7 | 29.0 | 0.00 | 0.00 | 0.00 | 79 | 1025.9 |
| 20260510060458 | 19 | 209 | 16.1 | 29.0 | 0.00 | 0.00 | 0.00 | 78 | 1025.8 |
| 20260510055957 | 20 | 202 | 12.9 | 22.5 | 0.00 | 0.00 | 0.00 | 78 | 1025.8 |
| 20260510054448 | 20 | 203 | 16.1 | 29.0 | 0.00 | 0.00 | 0.00 | 77 | 1025.6 |
| 20260510053946 | 20 | 207 | 12.9 | 27.4 | 0.00 | 0.00 | 0.00 | 77 | 1025.5 |
| 20260510053445 | 20 | 198 | 8.0 | 16.1 | 0.00 | 0.00 | 0.00 | 76 | 1025.6 |
| 20260510052942 | 19 | 200 | 16.1 | 27.4 | 0.00 | 0.00 | 0.00 | 77 | 1025.6 |
| 20260510051936 | 19 | 203 | 11.3 | 24.1 | 0.00 | 0.00 | 0.00 | 75 | 1025.4 |
| 20260510051433 | 20 | 207 | 11.3 | 24.1 | 0.00 | 0.00 | 0.00 | 75 | 1025.4 |
| 20260510050932 | 20 | 199 | 14.5 | 27.4 | 0.00 | 0.00 | 0.00 | 74 | 1025.3 |
| 20260510050430 | 20 | 192 | 12.9 | 25.7 | 0.00 | 0.00 | 0.00 | 73 | 1025.3 |
| 20260510044921 | 20 | 194 | 16.1 | 29.0 | 0.00 | 0.00 | 0.00 | 73 | 1025.3 |
| 20260510044420 | 20 | 207 | 17.7 | 27.4 | 0.00 | 0.00 | 0.00 | 73 | 1025.2 |
| 20260510043918 | 20 | 210 | 17.7 | 27.4 | 0.00 | 0.00 | 0.00 | 73 | 1025.2 |
| 20260510043416 | 20 | 210 | 14.5 | 27.4 | 0.00 | 0.00 | 0.00 | 72 | 1025.3 |
| 20260510042913 | 20 | 207 | 14.5 | 27.4 | 0.00 | 0.00 | 0.00 | 70 | 1025.2 |
| 20260510041909 | 21 | 215 | 11.3 | 22.5 | 0.00 | 0.00 | 0.00 | 68 | 1025.2 |
| 20260510040828 | 20 | 195 | 17.7 | 27.4 | 0.00 | 0.00 | 0.00 | 69 | 1025.2 |
| 20260510040326 | 20 | 204 | 16.1 | 29.0 | 0.00 | 0.00 | 0.00 | 67 | 1025.2 |
| 20260510035824 | 20 | 201 | 16.1 | 29.0 | 0.00 | 0.00 | 0.00 | 67 | 1025.2 |
| 20260510035322 | 20 | 205 | 11.3 | 20.9 | 0.00 | 0.00 | 0.00 | 65 | 1025.2 |
| 20260510034317 | 19 | 213 | 14.5 | 22.5 | 0.00 | 0.00 | 0.00 | 68 | 1025.1 |
| 20260510032809 | 20 | 210 | 16.1 | 27.4 | 0.00 | 0.00 | 0.00 | 62 | 1025.1 |
| 20260510032308 | 20 | 202 | 9.7 | 20.9 | 0.00 | 0.00 | 0.00 | 62 | 1025.2 |
| 20260510031302 | 20 | 208 | 12.9 | 25.7 | 0.00 | 0.00 | 0.00 | 64 | 1025.2 |
| 20260510030801 | 20 | 204 | 16.1 | 27.4 | 0.00 | 0.00 | 0.00 | 66 | 1025.3 |
| 20260510030259 | 20 | 204 | 19.3 | 29.0 | 0.00 | 0.00 | 0.00 | 65 | 1025.3 |
| 20260510025757 | 20 | 201 | 17.7 | 25.7 | 0.00 | 0.00 | 0.00 | 65 | 1025.4 |
| 20260510025256 | 20 | 206 | 16.1 | 24.1 | 0.00 | 0.00 | 0.00 | 64 | 1025.4 |
| 20260510024754 | 20 | 211 | 16.1 | 25.7 | 0.00 | 0.00 | 0.00 | 62 | 1025.4 |
| 20260510024252 | 20 | 192 | 11.3 | 20.9 | 0.00 | 0.00 | 0.00 | 61 | 1025.5 |
| 20260510023751 | 21 | 195 | 11.3 | 22.5 | 0.00 | 0.00 | 0.00 | 61 | 1025.5 |
| 20260510023248 | 21 | 207 | 9.7 | 20.9 | 0.00 | 0.00 | 0.00 | 61 | 1025.6 |
| 20260510022746 | 20 | 200 | 14.5 | 24.1 | 0.00 | 0.00 | 0.00 | 63 | 1025.5 |
| 20260510022244 | 20 | 205 | 12.9 | 22.5 | 0.00 | 0.00 | 0.00 | 63 | 1025.6 |
| 20260510021742 | 20 | 190 | 11.3 | 20.9 | 0.00 | 0.00 | 0.00 | 63 | 1025.7 |
| 20260510021241 | 20 | 199 | 12.9 | 20.9 | 0.00 | 0.00 | 0.00 | 63 | 1025.7 |
| 20260510020740 | 20 | 201 | 14.5 | 24.1 | 0.00 | 0.00 | 0.00 | 64 | 1025.9 |
| 20260510020238 | 20 | 208 | 14.5 | 24.1 | 0.00 | 0.00 | 0.00 | 62 | 1025.9 |
| 20260510014729 | 20 | 228 | 12.9 | 22.5 | 0.00 | 0.00 | 0.00 | 62 | 1026.0 |
| 20260510014227 | 19 | 279 | 8.0 | 14.5 | 0.00 | 0.00 | 0.00 | 67 | 1026.1 |
| 20260510013725 | 20 | 285 | 4.8 | 11.3 | 0.00 | 0.00 | 0.00 | 66 | 1026.2 |
| 20260510013224 | 20 | 265 | 3.2 | 8.0 | 0.00 | 0.00 | 0.00 | 68 | 1026.2 |
| 20260510012722 | 20 | 322 | 6.4 | 14.5 | 0.00 | 0.00 | 0.00 | 68 | 1026.3 |
| 20260510012221 | 20 | 316 | 4.8 | 12.9 | 0.00 | 0.00 | 0.00 | 69 | 1026.3 |
| 20260510011719 | 20 | 311 | 6.4 | 12.9 | 0.00 | 0.00 | 0.00 | 70 | 1026.2 |
| 20260510011218 | 19 | 316 | 3.2 | 8.0 | 0.00 | 0.00 | 0.00 | 70 | 1026.4 |
| 20260510010716 | 18 | 325 | 3.2 | 12.9 | 0.00 | 0.00 | 0.00 | 73 | 1026.4 |
| 20260510010214 | 18 | 312 | 4.8 | 9.7 | 0.00 | 0.00 | 0.00 | 73 | 1026.5 |
| 20260510005209 | 19 | 322 | 4.8 | 9.7 | 0.00 | 0.00 | 0.00 | 71 | 1026.6 |
| 20260510004707 | 18 | 322 | 4.8 | 12.9 | 0.00 | 0.00 | 0.00 | 73 | 1026.7 |
| 20260510004205 | 18 | 320 | 3.2 | 8.0 | 0.00 | 0.00 | 0.00 | 73 | 1026.7 |
| 20260510003705 | 18 | 326 | 3.2 | 8.0 | 0.00 | 0.00 | 0.00 | 75 | 1026.7 |
| 20260510003203 | 18 | 343 | 3.2 | 8.0 | 0.00 | 0.00 | 0.00 | 76 | 1026.8 |
| 20260510002701 | 17 | 324 | 3.2 | 8.0 | 0.00 | 0.00 | 0.00 | 78 | 1026.7 |
| 20260510002200 | 17 | 318 | 4.8 | 9.7 | 0.00 | 0.00 | 0.00 | 78 | 1026.7 |
| 20260510001658 | 17 | 279 | 8.0 | 16.1 | 0.00 | 0.00 | 0.00 | 80 | 1026.7 |
| 20260510001156 | 16 | 266 | 9.7 | 17.7 | 0.00 | 0.00 | 0.00 | 80 | 1026.7 |
| 20260510000653 | 16 | 276 | 9.7 | 17.7 | 0.00 | 0.00 | 0.00 | 79 | 1026.6 |
| 20260510000151 | 16 | 277 | 8.0 | 16.1 | 0.00 | 0.00 | 0.00 | 80 | 1026.6 |
| 20260509235650 | 16 | 283 | 8.0 | 14.5 | 0.00 | 0.00 | 0.00 | 79 | 1026.6 |
| 20260509235149 | 16 | 286 | 6.4 | 12.9 | 0.00 | 0.00 | 0.00 | 82 | 1026.5 |
| 20260509234647 | 16 | 274 | 8.0 | 12.9 | 0.00 | 0.00 | 0.00 | 81 | 1026.5 |
| 20260509234146 | 16 | 272 | 8.0 | 16.1 | 0.00 | 0.00 | 0.00 | 80 | 1026.5 |
| 20260509233645 | 16 | 265 | 9.7 | 14.5 | 0.00 | 0.00 | 0.00 | 80 | 1026.5 |
| 20260509232640 | 16 | 263 | 9.7 | 17.7 | 0.00 | 0.00 | 0.00 | 80 | 1026.4 |
| 20260509232138 | 16 | 262 | 9.7 | 17.7 | 0.00 | 0.00 | 0.00 | 80 | 1026.4 |
| 20260509231635 | 16 | 263 | 9.7 | 19.3 | 0.00 | 0.00 | 0.00 | 80 | 1026.4 |
| 20260509231133 | 15 | 264 | 11.3 | 19.3 | 0.00 | 0.00 | 0.00 | 81 | 1026.4 |
| 20260509230631 | 15 | 261 | 11.3 | 16.1 | 0.00 | 0.00 | 0.00 | 80 | 1026.3 |
| 20260509230059 | 15 | 261 | 11.3 | 17.7 | 0.00 | 0.00 | 0.00 | 81 | 1026.3 |
| 20260509225551 | 15 | 266 | 11.3 | 19.3 | 0.00 | 0.00 | 0.00 | 82 | 1026.3 |
| 20260509225050 | 15 | 266 | 12.9 | 22.5 | 0.00 | 0.00 | 0.00 | 82 | 1026.2 |
| 20260509224547 | 15 | 267 | 12.9 | 22.5 | 0.00 | 0.00 | 0.00 | 81 | 1026.2 |
| 20260509224044 | 15 | 261 | 12.9 | 22.5 | 0.00 | 0.00 | 0.00 | 81 | 1026.1 |
| 20260509223542 | 15 | 262 | 14.5 | 24.1 | 0.00 | 0.00 | 0.00 | 83 | 1026.3 |
| 20260509223039 | 15 | 262 | 14.5 | 25.7 | 0.00 | 0.00 | 0.00 | 81 | 1026.2 |
| 20260509222538 | 15 | 262 | 16.1 | 25.7 | 0.00 | 0.00 | 0.00 | 81 | 1026.2 |
| 20260509222037 | 15 | 256 | 17.7 | 27.4 | 0.00 | 0.00 | 0.00 | 80 | 1026.2 |
| 20260509221535 | 15 | 251 | 17.7 | 25.7 | 0.00 | 0.00 | 0.00 | 81 | 1026.2 |
| 20260509220531 | 15 | 257 | 16.1 | 25.7 | 0.00 | 0.00 | 0.00 | 82 | 1026.1 |
| 20260509220029 | 15 | 254 | 16.1 | 25.7 | 0.00 | 0.00 | 0.00 | 82 | 1026.1 |
| 20260509215528 | 15 | 260 | 12.9 | 20.9 | 0.00 | 0.00 | 0.00 | 84 | 1026.0 |
| 20260509215027 | 15 | 274 | 11.3 | 20.9 | 0.00 | 0.00 | 0.00 | 84 | 1026.0 |
| 20260509214524 | 14 | 281 | 9.7 | 17.7 | 0.00 | 0.00 | 0.00 | 86 | 1026.0 |
| 20260509214023 | 14 | 287 | 9.7 | 19.3 | 0.00 | 0.00 | 0.00 | 86 | 1025.9 |
| 20260509213522 | 14 | 306 | 8.0 | 16.1 | 0.00 | 0.00 | 0.00 | 86 | 1025.9 |
| 20260509213020 | 14 | 268 | 12.9 | 24.1 | 0.00 | 0.00 | 0.00 | 88 | 1025.8 |
| 20260509212519 | 14 | 255 | 17.7 | 24.1 | 0.00 | 0.00 | 0.00 | 87 | 1025.8 |
| 20260509212018 | 13 | 255 | 16.1 | 24.1 | 0.00 | 0.00 | 0.00 | 87 | 1025.8 |
| 20260509211517 | 13 | 256 | 17.7 | 27.4 | 0.00 | 0.00 | 0.00 | 88 | 1025.7 |
| 20260509211016 | 13 | 254 | 16.1 | 24.1 | 0.00 | 0.00 | 0.00 | 89 | 1025.7 |
| 20260509210513 | 13 | 255 | 16.1 | 25.7 | 0.00 | 0.00 | 0.00 | 89 | 1025.6 |
| 20260509205507 | 13 | 248 | 16.1 | 24.1 | 0.00 | 0.00 | 0.00 | 90 | 1025.5 |
| 20260509204501 | 13 | 253 | 17.7 | 24.1 | 0.00 | 0.00 | 0.00 | 90 | 1025.4 |
| 20260509203958 | 13 | 255 | 17.7 | 24.1 | 0.00 | 0.00 | 0.00 | 90 | 1025.3 |
| 20260509203456 | 13 | 252 | 17.7 | 24.1 | 0.00 | 0.00 | 0.00 | 90 | 1025.2 |
| 20260509202954 | 13 | 249 | 16.1 | 24.1 | 0.00 | 0.00 | 0.00 | 90 | 1025.2 |
| 20260509202453 | 13 | 249 | 16.1 | 24.1 | 0.00 | 0.00 | 0.00 | 90 | 1025.1 |
| 20260509201448 | 13 | 249 | 16.1 | 22.5 | 0.00 | 0.00 | 0.00 | 90 | 1025.0 |
| 20260509200946 | 13 | 251 | 17.7 | 25.7 | 0.00 | 0.00 | 0.00 | 90 | 1024.9 |
| 20260509200445 | 13 | 250 | 17.7 | 25.7 | 0.00 | 0.00 | 0.00 | 89 | 1024.8 |
| 20260509195943 | 13 | 248 | 16.1 | 22.5 | 0.00 | 0.00 | 0.00 | 90 | 1024.7 |
| 20260509195440 | 13 | 247 | 16.1 | 22.5 | 0.00 | 0.00 | 0.00 | 90 | 1024.6 |
| 20260509194939 | 13 | 252 | 17.7 | 25.7 | 0.00 | 0.00 | 0.00 | 90 | 1024.5 |
| 20260509193934 | 13 | 252 | 17.7 | 22.5 | 0.00 | 0.00 | 0.00 | 89 | 1024.5 |
| 20260509193431 | 13 | 253 | 17.7 | 24.1 | 0.00 | 0.00 | 0.00 | 89 | 1024.5 |
| 20260509192930 | 13 | 254 | 16.1 | 24.1 | 0.00 | 0.00 | 0.00 | 89 | 1024.4 |
| 20260509192428 | 13 | 255 | 16.1 | 22.5 | 0.00 | 0.00 | 0.00 | 89 | 1024.4 |
| 20260509191927 | 13 | 256 | 16.1 | 22.5 | 0.00 | 0.00 | 0.00 | 89 | 1024.4 |
| 20260509191426 | 13 | 253 | 16.1 | 22.5 | 0.00 | 0.00 | 0.00 | 89 | 1024.4 |
| 20260509190924 | 13 | 251 | 14.5 | 22.5 | 0.00 | 0.00 | 0.00 | 89 | 1024.3 |
| 20260509190423 | 14 | 255 | 14.5 | 24.1 | 0.00 | 0.00 | 0.00 | 89 | 1024.3 |
| 20260509185922 | 14 | 254 | 14.5 | 22.5 | 0.00 | 0.00 | 0.00 | 89 | 1024.2 |
| 20260509184916 | 14 | 260 | 11.3 | 22.5 | 0.00 | 0.00 | 0.00 | 89 | 1024.1 |
| 20260509184415 | 14 | 260 | 14.5 | 22.5 | 0.00 | 0.00 | 0.00 | 88 | 1024.0 |
| 20260509183410 | 14 | 256 | 16.1 | 24.1 | 0.00 | 0.00 | 0.00 | 88 | 1024.0 |
| 20260509182909 | 13 | 261 | 16.1 | 25.7 | 0.00 | 0.00 | 0.00 | 86 | 1023.9 |
| 20260509182407 | 13 | 257 | 16.1 | 25.7 | 0.00 | 0.00 | 0.00 | 86 | 1023.9 |
| 20260509180858 | 13 | 272 | 12.9 | 24.1 | 0.00 | 0.00 | 0.00 | 89 | 1023.8 |
| 20260509180356 | 13 | 266 | 12.9 | 22.5 | 0.00 | 0.00 | 0.00 | 89 | 1023.8 |
| 20260509175855 | 13 | 258 | 12.9 | 19.3 | 0.00 | 0.00 | 0.00 | 90 | 1023.7 |
| 20260509175353 | 13 | 258 | 16.1 | 22.5 | 0.00 | 0.00 | 0.00 | 89 | 1023.6 |
| 20260509174852 | 13 | 258 | 16.1 | 22.5 | 0.00 | 0.00 | 0.00 | 89 | 1023.5 |
| 20260509174350 | 13 | 258 | 14.5 | 22.5 | 0.00 | 0.00 | 0.00 | 89 | 1023.5 |
| 20260509173849 | 13 | 259 | 14.5 | 20.9 | 0.00 | 0.00 | 0.00 | 89 | 1023.4 |
| 20260509172844 | 13 | 254 | 16.1 | 22.5 | 0.00 | 0.00 | 0.00 | 88 | 1023.3 |
| 20260509172342 | 14 | 253 | 14.5 | 22.5 | 0.00 | 0.00 | 0.00 | 89 | 1023.3 |
| 20260509171839 | 14 | 250 | 16.1 | 22.5 | 0.00 | 0.00 | 0.00 | 89 | 1023.3 |
| 20260509171338 | 14 | 254 | 16.1 | 22.5 | 0.00 | 0.00 | 0.00 | 89 | 1023.3 |
| 20260509170837 | 14 | 252 | 14.5 | 20.9 | 0.00 | 0.00 | 0.00 | 89 | 1023.3 |
| 20260509170335 | 14 | 253 | 14.5 | 19.3 | 0.00 | 0.00 | 0.00 | 88 | 1023.3 |
| 20260509165834 | 14 | 252 | 16.1 | 22.5 | 0.00 | 0.00 | 0.00 | 87 | 1023.4 |
| 20260509165333 | 14 | 252 | 14.5 | 22.5 | 0.00 | 0.00 | 0.00 | 87 | 1023.4 |
| 20260509164832 | 14 | 250 | 12.9 | 22.5 | 0.00 | 0.00 | 0.00 | 87 | 1023.4 |
| 20260509164331 | 14 | 247 | 11.3 | 19.3 | 0.00 | 0.00 | 0.00 | 87 | 1023.4 |
| 20260509163830 | 14 | 249 | 14.5 | 19.3 | 0.00 | 0.00 | 0.00 | 87 | 1023.4 |
| 20260509163327 | 15 | 250 | 12.9 | 17.7 | 0.00 | 0.00 | 0.00 | 86 | 1023.4 |
| 20260509162826 | 15 | 251 | 12.9 | 19.3 | 0.00 | 0.00 | 0.00 | 86 | 1023.4 |
| 20260509161318 | 15 | 307 | 8.0 | 12.9 | 0.00 | 0.00 | 0.00 | 86 | 1023.6 |
| 20260509160816 | 15 | 308 | 9.7 | 16.1 | 0.00 | 0.00 | 0.00 | 86 | 1023.6 |
| 20260509160314 | 15 | 304 | 9.7 | 16.1 | 0.00 | 0.00 | 0.00 | 86 | 1023.6 |
| 20260509155813 | 15 | 292 | 9.7 | 17.7 | 0.00 | 0.00 | 0.00 | 85 | 1023.6 |
| 20260509155312 | 15 | 302 | 9.7 | 16.1 | 0.00 | 0.00 | 0.00 | 86 | 1023.5 |
| 20260509154811 | 15 | 315 | 9.7 | 16.1 | 0.00 | 0.00 | 0.00 | 87 | 1023.5 |
| 20260509154308 | 15 | 305 | 6.4 | 12.9 | 0.00 | 0.00 | 0.00 | 88 | 1023.5 |
| 20260509153806 | 15 | 289 | 8.0 | 12.9 | 0.00 | 0.00 | 0.00 | 87 | 1023.6 |
| 20260509153305 | 15 | 267 | 9.7 | 16.1 | 0.00 | 0.00 | 0.00 | 87 | 1023.6 |
| 20260509152803 | 15 | 276 | 8.0 | 16.1 | 0.00 | 0.00 | 0.00 | 86 | 1023.6 |
| 20260509152301 | 15 | 273 | 8.0 | 14.5 | 0.00 | 0.00 | 0.00 | 87 | 1023.6 |
| 20260509151758 | 15 | 264 | 11.3 | 17.7 | 0.00 | 0.00 | 0.00 | 85 | 1023.6 |
| 20260509151257 | 15 | 257 | 12.9 | 19.3 | 0.00 | 0.00 | 0.00 | 84 | 1023.6 |
| 20260509150756 | 15 | 254 | 12.9 | 17.7 | 0.00 | 0.00 | 0.00 | 85 | 1023.5 |
| 20260509150253 | 15 | 252 | 11.3 | 16.1 | 0.00 | 0.00 | 0.00 | 84 | 1023.5 |
| 20260509145752 | 15 | 250 | 12.9 | 17.7 | 0.00 | 0.00 | 0.00 | 84 | 1023.5 |
| 20260509145251 | 15 | 251 | 12.9 | 19.3 | 0.00 | 0.00 | 0.00 | 83 | 1023.4 |
| 20260509144750 | 15 | 256 | 14.5 | 19.3 | 0.00 | 0.00 | 0.00 | 84 | 1023.4 |
| 20260509144248 | 15 | 252 | 12.9 | 19.3 | 0.00 | 0.00 | 0.00 | 84 | 1023.4 |
| 20260509142237 | 15 | 250 | 12.9 | 19.3 | 0.00 | 0.00 | 0.00 | 85 | 1023.5 |
| 20260509141230 | 15 | 253 | 16.1 | 22.5 | 0.00 | 0.00 | 0.00 | 85 | 1023.4 |
| 20260509140729 | 15 | 254 | 14.5 | 19.3 | 0.00 | 0.00 | 0.00 | 86 | 1023.5 |
| 20260509140226 | 15 | 255 | 16.1 | 19.3 | 0.00 | 0.00 | 0.00 | 88 | 1023.4 |
| 20260509134719 | 15 | 261 | 14.5 | 22.5 | 0.00 | 0.00 | 0.00 | 87 | 1023.5 |
| 20260509134217 | 15 | 258 | 14.5 | 20.9 | 0.00 | 0.00 | 0.00 | 87 | 1023.5 |
| 20260509133212 | 15 | 258 | 14.5 | 20.9 | 0.00 | 0.00 | 0.00 | 83 | 1023.5 |
| 20260509132206 | 15 | 252 | 12.9 | 19.3 | 0.00 | 0.00 | 0.00 | 81 | 1023.5 |
| 20260509131201 | 15 | 268 | 9.7 | 16.1 | 0.00 | 0.00 | 0.00 | 82 | 1023.5 |
| 20260509130659 | 16 | 258 | 8.0 | 12.9 | 0.00 | 0.00 | 0.00 | 81 | 1023.6 |
| 20260509125653 | 16 | 263 | 9.7 | 16.1 | 0.00 | 0.00 | 0.00 | 83 | 1023.5 |
| 20260509125151 | 16 | 255 | 9.7 | 14.5 | 0.00 | 0.00 | 0.00 | 80 | 1023.5 |
| 20260509124650 | 16 | 259 | 9.7 | 12.9 | 0.00 | 0.00 | 0.00 | 79 | 1023.5 |
| 20260509123646 | 17 | 247 | 8.0 | 11.3 | 0.00 | 0.00 | 0.00 | 71 | 1023.6 |
| 20260509123144 | 17 | 218 | 9.7 | 12.9 | 0.00 | 0.00 | 0.00 | 65 | 1023.5 |
| 20260509122643 | 17 | 213 | 11.3 | 12.9 | 0.00 | 0.00 | 0.00 | 64 | 1023.5 |
| 20260509122140 | 17 | 210 | 12.9 | 14.5 | 0.00 | 0.00 | 0.00 | 65 | 1023.6 |
| 20260509121637 | 17 | 211 | 11.3 | 14.5 | 0.00 | 0.00 | 0.00 | 65 | 1023.6 |
| 20260509121136 | 17 | 206 | 12.9 | 16.1 | 0.00 | 0.00 | 0.00 | 65 | 1023.5 |
| 20260509115627 | 17 | 202 | 14.5 | 16.1 | 0.00 | 0.00 | 0.00 | 64 | 1023.6 |
| 20260509115125 | 17 | 200 | 12.9 | 14.5 | 0.00 | 0.00 | 0.00 | 65 | 1023.6 |
| 20260509114624 | 17 | 200 | 12.9 | 14.5 | 0.00 | 0.00 | 0.00 | 65 | 1023.6 |
| 20260509114123 | 17 | 199 | 11.3 | 16.1 | 0.00 | 0.00 | 0.00 | 65 | 1023.6 |
| 20260509113620 | 17 | 204 | 11.3 | 12.9 | 0.00 | 0.00 | 0.00 | 65 | 1023.6 |
| 20260509113118 | 17 | 194 | 11.3 | 16.1 | 0.00 | 0.00 | 0.00 | 63 | 1023.6 |
| 20260509112616 | 17 | 198 | 11.3 | 16.1 | 0.00 | 0.00 | 0.00 | 63 | 1023.6 |
| 20260509112114 | 17 | 194 | 12.9 | 17.7 | 0.00 | 0.00 | 0.00 | 63 | 1023.6 |
| 20260509111611 | 17 | 195 | 11.3 | 16.1 | 0.00 | 0.00 | 0.00 | 63 | 1023.6 |
| 20260509111110 | 17 | 198 | 9.7 | 12.9 | 0.00 | 0.00 | 0.00 | 63 | 1023.6 |
| 20260509110609 | 17 | 195 | 11.3 | 14.5 | 0.00 | 0.00 | 0.00 | 63 | 1023.6 |
| 20260509110107 | 17 | 193 | 9.7 | 12.9 | 0.00 | 0.00 | 0.00 | 63 | 1023.5 |
| 20260509105605 | 17 | 189 | 9.7 | 11.3 | 0.00 | 0.00 | 0.00 | 64 | 1023.5 |
| 20260509104600 | 17 | 192 | 12.9 | 16.1 | 0.00 | 0.00 | 0.00 | 63 | 1023.4 |
| 20260509103554 | 17 | 189 | 11.3 | 16.1 | 0.00 | 0.00 | 0.00 | 62 | 1023.5 |
| 20260509103052 | 17 | 188 | 12.9 | 17.7 | 0.00 | 0.00 | 0.00 | 62 | 1023.4 |
| 20260509102551 | 17 | 185 | 11.3 | 16.1 | 0.00 | 0.00 | 0.00 | 63 | 1023.4 |
| 20260509102048 | 17 | 186 | 12.9 | 16.1 | 0.00 | 0.00 | 0.00 | 63 | 1023.3 |
| 20260509101547 | 17 | 184 | 12.9 | 17.7 | 0.00 | 0.00 | 0.00 | 64 | 1023.3 |
| 20260509101046 | 17 | 182 | 12.9 | 17.7 | 0.00 | 0.00 | 0.00 | 64 | 1023.2 |
| 20260509100544 | 17 | 184 | 14.5 | 19.3 | 0.00 | 0.00 | 0.00 | 64 | 1023.2 |
| 20260509100042 | 17 | 180 | 14.5 | 19.3 | 0.00 | 0.00 | 0.00 | 63 | 1023.2 |
| 20260509095541 | 17 | 181 | 14.5 | 19.3 | 0.00 | 0.00 | 0.00 | 62 | 1023.1 |
| 20260509095039 | 17 | 181 | 14.5 | 19.3 | 0.00 | 0.00 | 0.00 | 61 | 1023.2 |
| 20260509094537 | 17 | 181 | 14.5 | 17.7 | 0.00 | 0.00 | 0.00 | 61 | 1023.1 |
| 20260509094036 | 17 | 180 | 14.5 | 17.7 | 0.00 | 0.00 | 0.00 | 62 | 1023.1 |
| 20260509093533 | 17 | 179 | 14.5 | 20.9 | 0.00 | 0.00 | 0.00 | 62 | 1023.1 |
| 20260509093032 | 17 | 182 | 16.1 | 20.9 | 0.00 | 0.00 | 0.00 | 64 | 1023.1 |
| 20260509092530 | 17 | 179 | 14.5 | 19.3 | 0.00 | 0.00 | 0.00 | 64 | 1023.1 |
| 20260509092028 | 17 | 179 | 16.1 | 20.9 | 0.00 | 0.00 | 0.00 | 64 | 1023.0 |
| 20260509090521 | 17 | 182 | 14.5 | 19.3 | 0.00 | 0.00 | 0.00 | 65 | 1022.9 |
| 20260509090020 | 17 | 179 | 14.5 | 19.3 | 0.00 | 0.00 | 0.00 | 65 | 1022.9 |
| 20260509085519 | 17 | 181 | 14.5 | 19.3 | 0.00 | 0.00 | 0.00 | 66 | 1022.9 |
| 20260509084513 | 17 | 178 | 14.5 | 19.3 | 0.00 | 0.00 | 0.00 | 66 | 1022.8 |
| 20260509084010 | 17 | 177 | 14.5 | 19.3 | 0.00 | 0.00 | 0.00 | 65 | 1022.8 |
| 20260509082502 | 17 | 183 | 14.5 | 19.3 | 0.00 | 0.00 | 0.00 | 65 | 1022.6 |
| 20260509082001 | 17 | 178 | 12.9 | 19.3 | 0.00 | 0.00 | 0.00 | 65 | 1022.6 |
| 20260509081500 | 17 | 182 | 16.1 | 24.1 | 0.00 | 0.00 | 0.00 | 64 | 1022.5 |
| 20260509080959 | 17 | 181 | 16.1 | 22.5 | 0.00 | 0.00 | 0.00 | 63 | 1022.4 |
| 20260509080458 | 17 | 186 | 16.1 | 22.5 | 0.00 | 0.00 | 0.00 | 63 | 1022.3 |
| 20260509075956 | 17 | 186 | 14.5 | 20.9 | 0.00 | 0.00 | 0.00 | 65 | 1022.3 |
| 20260509075455 | 17 | 185 | 16.1 | 20.9 | 0.00 | 0.00 | 0.00 | 65 | 1022.2 |
| 20260509074953 | 17 | 183 | 16.1 | 24.1 | 0.00 | 0.00 | 0.00 | 65 | 1022.2 |
| 20260509074452 | 17 | 183 | 14.5 | 22.5 | 0.00 | 0.00 | 0.00 | 65 | 1022.1 |
| 20260509072943 | 18 | 184 | 16.1 | 25.7 | 0.00 | 0.00 | 0.00 | 63 | 1022.0 |
| 20260509072442 | 17 | 182 | 14.5 | 20.9 | 0.00 | 0.00 | 0.00 | 62 | 1021.9 |
| 20260509071940 | 18 | 187 | 14.5 | 22.5 | 0.00 | 0.00 | 0.00 | 62 | 1021.9 |